sensor_id;sensor_type;location;lat;lon;timestamp;temperature;humidity
14154;DHT22;7157;53.144;7.570;2022-07-29T00:03:01;15.14;75.32
14154;DHT22;7157;53.144;7.570;2022-07-29T00:13:06;15.10;76.12
14154;DHT22;7157;53.144;7.570;2022-07-29T00:23:08;15.08;76.58
14154;DHT22;7157;53.144;7.570;2022-07-29T00:33:15;15.22;76.09
14154;DHT22;7157;53.144;7.570;2022-07-29T00:43:18;15.21;76.31
14154;DHT22;7157;53.144;7.570;2022-07-29T00:53:22;15.34;76.01
14154;DHT22;7157;53.144;7.570;2022-07-29T01:03:27;15.30;76.08
14154;DHT22;7157;53.144;7.570;2022-07-29T01:13:32;15.32;75.97
14154;DHT22;7157;53.144;7.570;2022-07-29T01:23:59;15.37;75.82
14154;DHT22;7157;53.144;7.570;2022-07-29T01:34:07;15.40;75.30
14154;DHT22;7157;53.144;7.570;2022-07-29T01:44:13;15.53;74.77
14154;DHT22;7157;53.144;7.570;2022-07-29T01:54:24;15.60;74.37
14154;DHT22;7157;53.144;7.570;2022-07-29T02:04:28;15.62;74.22
14154;DHT22;7157;53.144;7.570;2022-07-29T02:14:36;15.70;73.40
14154;DHT22;7157;53.144;7.570;2022-07-29T02:24:39;15.76;72.96
14154;DHT22;7157;53.144;7.570;2022-07-29T02:34:44;15.78;72.60
14154;DHT22;7157;53.144;7.570;2022-07-29T02:44:48;15.74;72.27
14154;DHT22;7157;53.144;7.570;2022-07-29T02:54:55;15.74;71.92
14154;DHT22;7157;53.144;7.570;2022-07-29T03:05:00;15.70;71.56
14154;DHT22;7157;53.144;7.570;2022-07-29T03:15:06;15.76;71.07
14154;DHT22;7157;53.144;7.570;2022-07-29T03:25:10;15.72;70.94
14154;DHT22;7157;53.144;7.570;2022-07-29T03:35:14;15.69;70.84
14154;DHT22;7157;53.144;7.570;2022-07-29T03:45:18;15.68;70.70
14154;DHT22;7157;53.144;7.570;2022-07-29T03:55:23;15.68;70.20
14154;DHT22;7157;53.144;7.570;2022-07-29T04:05:26;15.62;70.49
14154;DHT22;7157;53.144;7.570;2022-07-29T04:15:30;15.66;69.93
14154;DHT22;7157;53.144;7.570;2022-07-29T04:25:36;15.68;70.10
14154;DHT22;7157;53.144;7.570;2022-07-29T04:35:40;15.78;69.56
14154;DHT22;7157;53.144;7.570;2022-07-29T04:45:51;15.83;69.78
14154;DHT22;7157;53.144;7.570;2022-07-29T04:55:55;15.96;69.41
14154;DHT22;7157;53.144;7.570;2022-07-29T05:05:57;16.04;69.41
14154;DHT22;7157;53.144;7.570;2022-07-29T05:16:01;16.13;69.36
14154;DHT22;7157;53.144;7.570;2022-07-29T05:26:04;16.21;69.19
14154;DHT22;7157;53.144;7.570;2022-07-29T05:36:08;16.20;69.23
14154;DHT22;7157;53.144;7.570;2022-07-29T05:46:11;16.42;68.94
14154;DHT22;7157;53.144;7.570;2022-07-29T05:56:16;16.55;68.88
14154;DHT22;7157;53.144;7.570;2022-07-29T06:06:19;16.77;68.51
14154;DHT22;7157;53.144;7.570;2022-07-29T06:16:24;17.01;68.38
14154;DHT22;7157;53.144;7.570;2022-07-29T06:26:30;17.11;67.67
14154;DHT22;7157;53.144;7.570;2022-07-29T06:36:41;17.29;67.62
14154;DHT22;7157;53.144;7.570;2022-07-29T06:46:44;17.47;67.57
14154;DHT22;7157;53.144;7.570;2022-07-29T06:56:49;17.68;66.82
14154;DHT22;7157;53.144;7.570;2022-07-29T07:06:52;18.06;66.16
14154;DHT22;7157;53.144;7.570;2022-07-29T07:16:58;18.34;65.81
14154;DHT22;7157;53.144;7.570;2022-07-29T07:27:02;18.89;64.83
14154;DHT22;7157;53.144;7.570;2022-07-29T07:37:06;19.66;62.65
14154;DHT22;7157;53.144;7.570;2022-07-29T07:47:08;20.53;60.31
14154;DHT22;7157;53.144;7.570;2022-07-29T07:57:15;20.92;58.62
14154;DHT22;7157;53.144;7.570;2022-07-29T08:07:17;20.86;58.22
14154;DHT22;7157;53.144;7.570;2022-07-29T08:17:21;20.79;57.28
14154;DHT22;7157;53.144;7.570;2022-07-29T08:27:24;21.04;57.64
14154;DHT22;7157;53.144;7.570;2022-07-29T08:37:45;21.38;56.59
14154;DHT22;7157;53.144;7.570;2022-07-29T08:47:48;21.62;56.29
14154;DHT22;7157;53.144;7.570;2022-07-29T08:57:52;21.90;55.71
14154;DHT22;7157;53.144;7.570;2022-07-29T09:07:58;22.41;54.51
14154;DHT22;7157;53.144;7.570;2022-07-29T09:18:02;22.80;54.02
14154;DHT22;7157;53.144;7.570;2022-07-29T09:28:06;22.98;53.22
14154;DHT22;7157;53.144;7.570;2022-07-29T09:38:12;23.82;52.63
14154;DHT22;7157;53.144;7.570;2022-07-29T09:48:17;24.12;52.29
14154;DHT22;7157;53.144;7.570;2022-07-29T09:58:21;24.25;51.94
14154;DHT22;7157;53.144;7.570;2022-07-29T10:08:25;24.44;51.54
14154;DHT22;7157;53.144;7.570;2022-07-29T10:18:30;24.66;51.37
14154;DHT22;7157;53.144;7.570;2022-07-29T10:28:33;25.08;49.21
14154;DHT22;7157;53.144;7.570;2022-07-29T10:38:43;25.33;48.62
14154;DHT22;7157;53.144;7.570;2022-07-29T10:49:04;25.51;47.16
14154;DHT22;7157;53.144;7.570;2022-07-29T10:59:25;25.45;46.76
14154;DHT22;7157;53.144;7.570;2022-07-29T11:09:36;25.45;47.42
14154;DHT22;7157;53.144;7.570;2022-07-29T11:19:41;25.38;47.56
14154;DHT22;7157;53.144;7.570;2022-07-29T11:29:54;25.22;47.93
14154;DHT22;7157;53.144;7.570;2022-07-29T11:40:12;25.17;47.58
14154;DHT22;7157;53.144;7.570;2022-07-29T11:50:26;25.09;47.07
14154;DHT22;7157;53.144;7.570;2022-07-29T12:00:32;25.48;46.53
14154;DHT22;7157;53.144;7.570;2022-07-29T12:10:35;25.65;47.05
14154;DHT22;7157;53.144;7.570;2022-07-29T12:20:39;25.48;47.62
14154;DHT22;7157;53.144;7.570;2022-07-29T12:30:47;25.16;47.54
14154;DHT22;7157;53.144;7.570;2022-07-29T12:40:54;24.84;47.75
14154;DHT22;7157;53.144;7.570;2022-07-29T12:50:59;24.56;48.08
14154;DHT22;7157;53.144;7.570;2022-07-29T13:01:06;24.45;47.77
14154;DHT22;7157;53.144;7.570;2022-07-29T13:11:28;24.49;48.57
14154;DHT22;7157;53.144;7.570;2022-07-29T13:21:36;24.45;49.06
14154;DHT22;7157;53.144;7.570;2022-07-29T13:31:39;24.29;49.24
14154;DHT22;7157;53.144;7.570;2022-07-29T13:41:43;24.20;50.41
14154;DHT22;7157;53.144;7.570;2022-07-29T13:51:46;23.98;52.96
14154;DHT22;7157;53.144;7.570;2022-07-29T14:01:50;23.87;53.24
14154;DHT22;7157;53.144;7.570;2022-07-29T14:11:53;23.66;55.65
14154;DHT22;7157;53.144;7.570;2022-07-29T14:21:57;23.42;57.30
14154;DHT22;7157;53.144;7.570;2022-07-29T14:32:00;23.28;59.19
14154;DHT22;7157;53.144;7.570;2022-07-29T14:42:05;23.28;59.92
14154;DHT22;7157;53.144;7.570;2022-07-29T14:52:09;23.39;61.02
14154;DHT22;7157;53.144;7.570;2022-07-29T15:02:13;23.05;61.46
14154;DHT22;7157;53.144;7.570;2022-07-29T15:12:16;22.60;64.21
14154;DHT22;7157;53.144;7.570;2022-07-29T15:22:20;22.42;65.83
14154;DHT22;7157;53.144;7.570;2022-07-29T15:32:23;22.48;64.41
14154;DHT22;7157;53.144;7.570;2022-07-29T15:42:27;22.61;63.39
14154;DHT22;7157;53.144;7.570;2022-07-29T15:52:29;23.17;62.60
14154;DHT22;7157;53.144;7.570;2022-07-29T16:02:33;23.70;61.82
14154;DHT22;7157;53.144;7.570;2022-07-29T16:12:36;24.09;61.63
14154;DHT22;7157;53.144;7.570;2022-07-29T16:22:40;24.39;60.57
14154;DHT22;7157;53.144;7.570;2022-07-29T16:32:43;24.53;59.15
14154;DHT22;7157;53.144;7.570;2022-07-29T16:42:47;24.69;57.22
14154;DHT22;7157;53.144;7.570;2022-07-29T16:52:50;24.71;54.06
14154;DHT22;7157;53.144;7.570;2022-07-29T17:02:54;24.61;53.29
14154;DHT22;7157;53.144;7.570;2022-07-29T17:12:56;24.76;53.22
14154;DHT22;7157;53.144;7.570;2022-07-29T17:23:00;24.87;51.96
14154;DHT22;7157;53.144;7.570;2022-07-29T17:33:03;24.80;49.69
14154;DHT22;7157;53.144;7.570;2022-07-29T17:43:07;24.88;48.99
14154;DHT22;7157;53.144;7.570;2022-07-29T17:53:10;24.82;49.25
14154;DHT22;7157;53.144;7.570;2022-07-29T18:03:18;24.51;49.75
14154;DHT22;7157;53.144;7.570;2022-07-29T18:13:21;24.44;49.15
14154;DHT22;7157;53.144;7.570;2022-07-29T18:23:25;24.33;50.69
14154;DHT22;7157;53.144;7.570;2022-07-29T18:33:28;23.86;51.96
14154;DHT22;7157;53.144;7.570;2022-07-29T18:43:34;23.34;53.42
14154;DHT22;7157;53.144;7.570;2022-07-29T18:53:36;22.96;55.39
14154;DHT22;7157;53.144;7.570;2022-07-29T19:03:42;22.54;56.94
14154;DHT22;7157;53.144;7.570;2022-07-29T19:13:44;22.13;58.32
14154;DHT22;7157;53.144;7.570;2022-07-29T19:23:48;21.75;59.48
14154;DHT22;7157;53.144;7.570;2022-07-29T19:34:08;21.33;61.28
14154;DHT22;7157;53.144;7.570;2022-07-29T19:44:12;21.00;62.50
14154;DHT22;7157;53.144;7.570;2022-07-29T19:54:15;20.43;64.93
14154;DHT22;7157;53.144;7.570;2022-07-29T20:04:20;20.14;66.05
14154;DHT22;7157;53.144;7.570;2022-07-29T20:14:22;20.16;66.72
14154;DHT22;7157;53.144;7.570;2022-07-29T20:24:26;20.14;67.57
14154;DHT22;7157;53.144;7.570;2022-07-29T20:34:29;20.16;68.26
14154;DHT22;7157;53.144;7.570;2022-07-29T20:44:33;20.15;69.33
14154;DHT22;7157;53.144;7.570;2022-07-29T20:54:36;20.02;70.00
14154;DHT22;7157;53.144;7.570;2022-07-29T21:04:40;19.79;71.21
14154;DHT22;7157;53.144;7.570;2022-07-29T21:14:44;19.54;72.07
14154;DHT22;7157;53.144;7.570;2022-07-29T21:24:51;19.53;72.67
14154;DHT22;7157;53.144;7.570;2022-07-29T21:34:54;19.56;73.09
14154;DHT22;7157;53.144;7.570;2022-07-29T21:44:58;19.58;73.36
14154;DHT22;7157;53.144;7.570;2022-07-29T21:55:00;19.50;74.16
14154;DHT22;7157;53.144;7.570;2022-07-29T22:05:05;19.48;74.41
14154;DHT22;7157;53.144;7.570;2022-07-29T22:15:09;19.40;74.92
14154;DHT22;7157;53.144;7.570;2022-07-29T22:25:16;19.31;75.23
14154;DHT22;7157;53.144;7.570;2022-07-29T22:35:19;19.22;75.93
14154;DHT22;7157;53.144;7.570;2022-07-29T22:45:23;19.12;76.18
14154;DHT22;7157;53.144;7.570;2022-07-29T22:55:26;19.20;76.14
14154;DHT22;7157;53.144;7.570;2022-07-29T23:05:30;18.97;77.02
14154;DHT22;7157;53.144;7.570;2022-07-29T23:15:33;18.84;77.94
14154;DHT22;7157;53.144;7.570;2022-07-29T23:25:37;18.81;77.60
14154;DHT22;7157;53.144;7.570;2022-07-29T23:35:40;18.69;77.98
14154;DHT22;7157;53.144;7.570;2022-07-29T23:45:44;18.59;78.78
14154;DHT22;7157;53.144;7.570;2022-07-29T23:55:49;18.55;78.40
